Time;durP1;ratioP1;P1;durP2;ratioP2;P2;SDS_P1;SDS_P2;PMS_P1;PMS_P2;Temp;Humidity;BMP_temperature;BMP_pressure;BME280_temperature;BME280_humidity;BME280_pressure;Samples;Min_cycle;Max_cycle;Signal;HPM_P1;HPM_P2
2023/06/12 00:01:10;;;;;;;8.20;3.03;;;;;;;;;;5056644;28;20025;-59
2023/06/12 00:03:36;;;;;;;4.28;2.88;;;;;;;;;;5056052;28;20025;-59
2023/06/12 00:06:02;;;;;;;3.80;3.22;;;;;;;;;;5056795;28;20025;-59
2023/06/12 00:08:29;;;;;;;3.47;3.17;;;;;;;;;;5055947;28;20108;-59
2023/06/12 00:10:55;;;;;;;4.20;3.50;;;;;;;;;;5056227;28;20036;-59
2023/06/12 00:13:22;;;;;;;4.22;3.42;;;;;;;;;;5056096;28;20516;-59
2023/06/12 00:15:48;;;;;;;5.05;3.83;;;;;;;;;;5055786;28;20083;-59
2023/06/12 00:18:15;;;;;;;4.10;3.33;;;;;;;;;;5055796;28;20384;-59
2023/06/12 00:20:41;;;;;;;5.13;3.80;;;;;;;;;;5056536;28;20021;-59
2023/06/12 00:23:10;;;;;;;4.15;3.53;;;;;;;;;;5056051;28;20017;-59
2023/06/12 00:25:36;;;;;;;3.97;3.35;;;;;;;;;;5055591;28;20021;-58
2023/06/12 00:28:02;;;;;;;4.90;3.92;;;;;;;;;;5056212;28;20151;-59
2023/06/12 00:30:27;;;;;;;3.90;2.90;;;;;;;;;;5055299;28;20021;-59
2023/06/12 00:32:53;;;;;;;4.07;3.10;;;;;;;;;;5055957;28;20037;-59
2023/06/12 00:35:19;;;;;;;4.32;3.40;;;;;;;;;;5055960;28;20064;-59
2023/06/12 00:37:49;;;;;;;4.13;2.78;;;;;;;;;;5056063;28;20024;-59
2023/06/12 00:40:15;;;;;;;3.50;3.00;;;;;;;;;;5055029;28;20052;-59
2023/06/12 00:42:42;;;;;;;3.10;2.70;;;;;;;;;;5055851;28;20443;-59
2023/06/12 00:45:08;;;;;;;5.38;3.75;;;;;;;;;;5055277;28;20052;-59
2023/06/12 00:47:35;;;;;;;3.80;3.38;;;;;;;;;;5055847;28;20028;-59
2023/06/12 00:50:01;;;;;;;4.47;2.95;;;;;;;;;;5055091;28;20040;-58
2023/06/12 00:52:29;;;;;;;4.78;3.13;;;;;;;;;;5054847;28;20021;-58
2023/06/12 00:54:56;;;;;;;3.40;3.05;;;;;;;;;;5054928;28;20063;-59
2023/06/12 00:57:23;;;;;;;4.28;3.40;;;;;;;;;;5055377;28;20032;-59
2023/06/12 00:59:49;;;;;;;3.50;2.92;;;;;;;;;;5055026;28;20052;-59
2023/06/12 01:02:15;;;;;;;3.97;3.53;;;;;;;;;;5054891;28;20110;-59
2023/06/12 01:04:42;;;;;;;3.85;3.08;;;;;;;;;;5054830;28;20036;-59
2023/06/12 01:07:15;;;;;;;4.07;3.15;;;;;;;;;;5055119;28;20367;-58
2023/06/12 01:09:46;;;;;;;3.45;2.85;;;;;;;;;;5055119;28;20067;-59
2023/06/12 01:12:12;;;;;;;6.10;3.72;;;;;;;;;;5055205;28;20028;-59
2023/06/12 01:14:38;;;;;;;3.88;3.47;;;;;;;;;;5055041;28;20052;-59
2023/06/12 01:17:04;;;;;;;4.13;3.38;;;;;;;;;;5054966;28;20029;-58
2023/06/12 01:19:30;;;;;;;3.50;2.78;;;;;;;;;;5054622;28;20482;-59
2023/06/12 01:21:59;;;;;;;5.28;2.95;;;;;;;;;;5055424;28;20025;-58
2023/06/12 01:24:34;;;;;;;3.38;2.72;;;;;;;;;;5054541;28;20087;-59
2023/06/12 01:27:09;;;;;;;4.75;3.50;;;;;;;;;;5055059;28;20025;-59
2023/06/12 01:29:44;;;;;;;3.80;3.10;;;;;;;;;;5054473;28;20063;-58
2023/06/12 01:32:14;;;;;;;9.23;3.42;;;;;;;;;;5054398;28;20379;-59
2023/06/12 01:34:50;;;;;;;3.97;3.53;;;;;;;;;;5054825;28;20370;-59
2023/06/12 01:37:21;;;;;;;4.97;3.58;;;;;;;;;;5054578;28;20518;-59
2023/06/12 01:39:46;;;;;;;;;;;;;;;;;;5054722;28;20028;-59
2023/06/12 01:42:12;;;;;;;4.05;2.85;;;;;;;;;;5054217;28;19905;-58
2023/06/12 01:44:38;;;;;;;4.72;3.67;;;;;;;;;;5054190;28;20017;-59
2023/06/12 01:47:04;;;;;;;4.30;3.28;;;;;;;;;;5054204;28;20033;-58
2023/06/12 01:49:30;;;;;;;4.15;3.67;;;;;;;;;;5054171;28;20025;-59
2023/06/12 01:51:56;;;;;;;5.28;3.03;;;;;;;;;;5054049;28;20046;-58
2023/06/12 01:54:22;;;;;;;5.28;3.45;;;;;;;;;;5054395;28;20067;-58
2023/06/12 01:56:49;;;;;;;4.22;3.03;;;;;;;;;;5053855;28;20020;-58
2023/06/12 01:59:15;;;;;;;3.30;2.67;;;;;;;;;;5054282;28;20435;-58
2023/06/12 02:01:41;;;;;;;4.68;2.75;;;;;;;;;;5053348;28;20060;-59
2023/06/12 02:04:07;;;;;;;3.80;3.30;;;;;;;;;;5053719;28;20398;-58
2023/06/12 02:06:33;;;;;;;3.90;3.00;;;;;;;;;;5054452;28;20017;-58
2023/06/12 02:08:59;;;;;;;5.07;3.50;;;;;;;;;;5054040;28;20166;-58
2023/06/12 02:11:26;;;;;;;4.07;3.45;;;;;;;;;;5053645;28;20028;-58
2023/06/12 02:13:52;;;;;;;4.10;3.70;;;;;;;;;;5053230;28;20068;-59
2023/06/12 02:16:21;;;;;;;4.72;3.35;;;;;;;;;;5054272;28;20033;-58
2023/06/12 02:18:47;;;;;;;5.00;4.28;;;;;;;;;;5054345;28;20025;-59
2023/06/12 02:21:13;;;;;;;4.97;3.35;;;;;;;;;;5053214;28;20047;-59
2023/06/12 02:23:39;;;;;;;3.90;3.50;;;;;;;;;;5053547;28;20067;-59
2023/06/12 02:26:05;;;;;;;4.05;2.95;;;;;;;;;;5054035;28;20064;-59
2023/06/12 02:28:31;;;;;;;4.35;3.75;;;;;;;;;;5053532;28;20463;-58
2023/06/12 02:30:57;;;;;;;3.58;3.20;;;;;;;;;;5053446;28;20119;-59
2023/06/12 02:33:25;;;;;;;4.00;3.42;;;;;;;;;;5053471;28;20033;-59
2023/06/12 02:35:51;;;;;;;4.18;3.03;;;;;;;;;;5053315;28;20463;-58
2023/06/12 02:38:17;;;;;;;3.83;3.42;;;;;;;;;;5053050;28;20480;-58
2023/06/12 02:40:43;;;;;;;3.80;3.40;;;;;;;;;;5053061;28;20071;-58
2023/06/12 02:43:09;;;;;;;4.30;3.28;;;;;;;;;;5053941;28;20031;-58
2023/06/12 02:45:35;;;;;;;4.15;3.53;;;;;;;;;;5053748;28;20027;-58
2023/06/12 02:48:02;;;;;;;5.60;3.13;;;;;;;;;;5053773;28;20025;-58
2023/06/12 02:50:28;;;;;;;4.00;3.20;;;;;;;;;;5053276;28;20021;-58
2023/06/12 02:52:54;;;;;;;3.30;2.90;;;;;;;;;;5053084;28;20543;-58
2023/06/12 02:55:20;;;;;;;3.88;3.47;;;;;;;;;;5053250;28;20094;-59
2023/06/12 02:57:46;;;;;;;4.15;3.50;;;;;;;;;;5053641;28;20083;-59
2023/06/12 03:00:15;;;;;;;4.72;2.97;;;;;;;;;;5053261;28;20029;-58
2023/06/12 03:02:42;;;;;;;5.05;3.85;;;;;;;;;;5053201;28;20013;-59
2023/06/12 03:05:12;;;;;;;3.80;2.95;;;;;;;;;;5053080;28;20108;-58
2023/06/12 03:07:40;;;;;;;4.20;3.75;;;;;;;;;;5053751;28;20430;-58
2023/06/12 03:10:06;;;;;;;4.28;3.47;;;;;;;;;;5052812;28;20466;-58
2023/06/12 03:12:32;;;;;;;4.72;4.13;;;;;;;;;;5054058;28;20029;-59
2023/06/12 03:14:59;;;;;;;3.47;3.17;;;;;;;;;;5057591;28;20375;-58
2023/06/12 03:17:25;;;;;;;4.00;3.00;;;;;;;;;;5057523;28;20033;-58
2023/06/12 03:19:51;;;;;;;5.07;3.83;;;;;;;;;;5056674;28;20028;-58
2023/06/12 03:22:17;;;;;;;5.15;3.60;;;;;;;;;;5056888;28;20025;-58
2023/06/12 03:24:46;;;;;;;4.03;3.42;;;;;;;;;;5056938;28;20048;-58
2023/06/12 03:27:13;;;;;;;4.10;3.17;;;;;;;;;;5056888;28;20470;-58
2023/06/12 03:29:39;;;;;;;4.47;3.47;;;;;;;;;;5057486;28;20041;-58
2023/06/12 03:32:06;;;;;;;4.07;3.28;;;;;;;;;;5056403;28;20021;-58
2023/06/12 03:34:32;;;;;;;5.25;3.95;;;;;;;;;;5056385;28;20471;-59
2023/06/12 03:36:58;;;;;;;5.60;3.63;;;;;;;;;;5057081;28;20492;-58
2023/06/12 03:39:25;;;;;;;4.63;3.70;;;;;;;;;;5056665;28;20021;-58
2023/06/12 03:41:56;;;;;;;4.13;3.58;;;;;;;;;;5056533;28;20459;-58
2023/06/12 03:44:22;;;;;;;4.80;3.97;;;;;;;;;;5056452;28;20037;-58
2023/06/12 03:46:48;;;;;;;9.05;4.05;;;;;;;;;;5056773;28;20016;-58
2023/06/12 03:49:14;;;;;;;5.50;4.05;;;;;;;;;;5056475;28;20020;-58
2023/06/12 03:51:40;;;;;;;4.22;3.65;;;;;;;;;;5056425;28;20459;-58
2023/06/12 03:54:06;;;;;;;4.20;3.42;;;;;;;;;;5057001;28;20021;-59
2023/06/12 03:56:32;;;;;;;4.65;3.67;;;;;;;;;;5056930;28;20025;-58
2023/06/12 03:58:58;;;;;;;4.15;3.30;;;;;;;;;;5056321;28;20100;-58
2023/06/12 04:01:24;;;;;;;4.63;3.83;;;;;;;;;;5056258;28;20071;-58
2023/06/12 04:03:51;;;;;;;3.78;3.40;;;;;;;;;;5056183;28;20421;-58
2023/06/12 04:06:17;;;;;;;3.97;3.58;;;;;;;;;;5056537;28;20025;-58
2023/06/12 04:08:46;;;;;;;7.18;4.00;;;;;;;;;;5056558;28;20104;-58
2023/06/12 04:11:14;;;;;;;4.70;4.20;;;;;;;;;;5056010;28;20035;-58
2023/06/12 04:13:41;;;;;;;5.45;3.40;;;;;;;;;;5056373;28;20088;-58
2023/06/12 04:16:07;;;;;;;4.68;3.53;;;;;;;;;;5055867;28;20037;-58
2023/06/12 04:18:33;;;;;;;4.22;3.83;;;;;;;;;;5055868;28;20112;-58
2023/06/12 04:21:00;;;;;;;4.25;3.85;;;;;;;;;;5056320;28;20021;-58
2023/06/12 04:23:29;;;;;;;4.57;4.07;;;;;;;;;;5055335;28;20474;-58
2023/06/12 04:26:01;;;;;;;5.78;3.80;;;;;;;;;;5055728;28;20065;-58
2023/06/12 04:28:28;;;;;;;4.03;3.63;;;;;;;;;;5055679;28;20028;-58
2023/06/12 04:30:54;;;;;;;5.10;4.40;;;;;;;;;;5055621;28;20033;-58
2023/06/12 04:33:21;;;;;;;4.03;3.58;;;;;;;;;;5055670;28;20021;-58
2023/06/12 04:35:47;;;;;;;5.38;4.00;;;;;;;;;;5055183;28;20463;-58
2023/06/12 04:38:13;;;;;;;4.78;3.53;;;;;;;;;;5055564;28;20025;-58
2023/06/12 04:40:39;;;;;;;5.75;4.05;;;;;;;;;;5056001;28;20025;-59
2023/06/12 04:43:06;;;;;;;5.55;4.03;;;;;;;;;;5055451;28;20146;-59
2023/06/12 04:45:33;;;;;;;5.93;4.03;;;;;;;;;;5055302;28;20032;-58
2023/06/12 04:47:59;;;;;;;4.50;3.63;;;;;;;;;;5055549;28;20027;-59
2023/06/12 04:50:25;;;;;;;4.38;3.97;;;;;;;;;;5055254;28;20036;-58
2023/06/12 04:52:52;;;;;;;5.13;3.60;;;;;;;;;;5054973;28;20104;-58
2023/06/12 04:55:22;;;;;;;4.53;3.72;;;;;;;;;;5055591;28;20033;-58
2023/06/12 04:57:52;;;;;;;4.22;3.33;;;;;;;;;;5055138;28;20107;-58
2023/06/12 05:00:18;;;;;;;4.53;3.58;;;;;;;;;;5055643;28;20104;-59
2023/06/12 05:02:46;;;;;;;5.05;4.47;;;;;;;;;;5054973;28;20037;-59
2023/06/12 05:05:12;;;;;;;4.50;3.85;;;;;;;;;;5055092;28;20027;-58
2023/06/12 05:07:41;;;;;;;4.68;4.20;;;;;;;;;;5055536;28;20029;-59
2023/06/12 05:10:07;;;;;;;4.70;3.70;;;;;;;;;;5054835;28;20542;-59
2023/06/12 05:12:33;;;;;;;4.72;3.95;;;;;;;;;;5055033;28;20486;-59
2023/06/12 05:14:59;;;;;;;8.18;3.55;;;;;;;;;;5055601;28;20045;-59
2023/06/12 05:17:26;;;;;;;4.30;3.90;;;;;;;;;;5055505;28;20414;-59
2023/06/12 05:19:52;;;;;;;4.95;4.45;;;;;;;;;;5054749;28;20024;-59
2023/06/12 05:22:18;;;;;;;4.57;3.90;;;;;;;;;;5054675;28;20479;-59
2023/06/12 05:24:44;;;;;;;5.65;4.25;;;;;;;;;;5054600;28;20028;-59
2023/06/12 05:27:10;;;;;;;5.80;4.47;;;;;;;;;;5054588;28;20017;-59
2023/06/12 05:29:36;;;;;;;4.22;3.75;;;;;;;;;;5055318;28;20440;-59
2023/06/12 05:32:03;;;;;;;6.07;5.20;;;;;;;;;;5053827;28;20021;-59
2023/06/12 05:34:29;;;;;;;4.60;4.10;;;;;;;;;;5054885;28;20064;-59
2023/06/12 05:36:55;;;;;;;3.97;3.47;;;;;;;;;;5053681;28;20096;-59
2023/06/12 05:39:20;;;;;;;4.63;4.15;;;;;;;;;;5054341;28;20032;-59
2023/06/12 05:41:46;;;;;;;5.80;4.65;;;;;;;;;;5053928;28;20409;-59
2023/06/12 05:44:12;;;;;;;6.60;4.03;;;;;;;;;;5054379;28;20079;-59
2023/06/12 05:46:38;;;;;;;5.28;4.38;;;;;;;;;;5054306;28;20074;-59
2023/06/12 05:49:04;;;;;;;6.95;4.15;;;;;;;;;;5054101;28;20025;-59
2023/06/12 05:51:30;;;;;;;5.88;4.03;;;;;;;;;;5054303;28;20439;-59
2023/06/12 05:53:56;;;;;;;5.25;4.47;;;;;;;;;;5054306;28;20390;-59
2023/06/12 05:56:23;;;;;;;5.43;4.40;;;;;;;;;;5054675;28;20040;-59
2023/06/12 05:58:49;;;;;;;5.00;4.47;;;;;;;;;;5053956;28;20032;-59
2023/06/12 06:01:21;;;;;;;6.13;4.47;;;;;;;;;;5054332;28;20021;-59
2023/06/12 06:03:48;;;;;;;4.60;3.92;;;;;;;;;;5054434;28;20048;-59
2023/06/12 06:06:15;;;;;;;7.25;5.32;;;;;;;;;;5054248;28;20359;-59
2023/06/12 06:08:41;;;;;;;5.53;4.30;;;;;;;;;;5054406;28;20029;-59
2023/06/12 06:11:08;;;;;;;4.78;4.30;;;;;;;;;;5054462;28;20343;-59
2023/06/12 06:13:34;;;;;;;5.70;4.32;;;;;;;;;;5053613;28;20433;-59
2023/06/12 06:16:02;;;;;;;4.90;4.43;;;;;;;;;;5054508;28;20029;-59
2023/06/12 06:18:31;;;;;;;7.32;4.85;;;;;;;;;;5053780;28;20018;-59
2023/06/12 06:20:57;;;;;;;6.32;4.60;;;;;;;;;;5053752;28;20033;-59
2023/06/12 06:23:23;;;;;;;6.15;4.45;;;;;;;;;;5053693;28;20036;-59
2023/06/12 06:25:49;;;;;;;5.15;4.43;;;;;;;;;;5053661;28;20025;-59
2023/06/12 06:28:15;;;;;;;5.60;4.28;;;;;;;;;;5053606;28;20025;-59
2023/06/12 06:30:41;;;;;;;5.20;4.57;;;;;;;;;;5053631;28;20021;-59
2023/06/12 06:33:08;;;;;;;8.32;4.07;;;;;;;;;;5053501;28;20025;-59
2023/06/12 06:35:34;;;;;;;4.65;4.18;;;;;;;;;;5053527;28;20284;-59
2023/06/12 06:38:00;;;;;;;8.07;4.18;;;;;;;;;;5053975;28;20025;-59
2023/06/12 06:40:26;;;;;;;7.03;4.88;;;;;;;;;;5053476;28;20032;-59
2023/06/12 06:42:52;;;;;;;5.47;4.13;;;;;;;;;;5053341;28;20111;-59
2023/06/12 06:45:19;;;;;;;5.25;4.05;;;;;;;;;;5053397;28;20029;-59
2023/06/12 06:47:45;;;;;;;4.13;3.67;;;;;;;;;;5056046;28;20103;-59
2023/06/12 06:50:11;;;;;;;4.60;4.10;;;;;;;;;;5057842;28;20025;-59
2023/06/12 06:52:37;;;;;;;5.82;4.40;;;;;;;;;;5057398;28;20360;-59
2023/06/12 06:55:03;;;;;;;6.55;3.65;;;;;;;;;;5057314;28;20056;-59
2023/06/12 06:57:29;;;;;;;4.28;3.85;;;;;;;;;;5057394;28;20029;-59
2023/06/12 06:59:55;;;;;;;4.40;3.95;;;;;;;;;;5057342;28;20458;-59
2023/06/12 07:02:22;;;;;;;5.47;4.38;;;;;;;;;;5056795;28;20605;-59
2023/06/12 07:04:48;;;;;;;4.65;4.18;;;;;;;;;;5057392;28;20078;-59
2023/06/12 07:07:14;;;;;;;11.35;4.45;;;;;;;;;;5057443;28;20064;-59
2023/06/12 07:09:40;;;;;;;5.43;4.90;;;;;;;;;;5057096;28;20044;-59
2023/06/12 07:12:06;;;;;;;4.60;4.03;;;;;;;;;;5057677;28;20025;-59
2023/06/12 07:14:32;;;;;;;4.32;3.80;;;;;;;;;;5056815;28;20049;-59
2023/06/12 07:16:58;;;;;;;4.57;4.13;;;;;;;;;;5057344;28;20410;-59
2023/06/12 07:19:24;;;;;;;6.38;3.90;;;;;;;;;;5056723;28;20027;-59
2023/06/12 07:21:50;;;;;;;4.35;3.95;;;;;;;;;;5057340;28;20052;-59
2023/06/12 07:24:20;;;;;;;4.10;3.70;;;;;;;;;;5057593;28;20039;-59
2023/06/12 07:26:46;;;;;;;4.13;3.67;;;;;;;;;;5057257;28;20025;-59
2023/06/12 07:29:12;;;;;;;4.88;4.40;;;;;;;;;;5057396;28;20053;-59
2023/06/12 07:31:38;;;;;;;5.05;4.45;;;;;;;;;;5057051;28;20029;-59
2023/06/12 07:34:04;;;;;;;4.10;3.70;;;;;;;;;;5056515;28;20494;-59
2023/06/12 07:36:35;;;;;;;4.35;3.95;;;;;;;;;;5057239;28;20409;-59
2023/06/12 07:39:01;;;;;;;4.47;4.07;;;;;;;;;;5056670;28;20530;-59
2023/06/12 07:41:27;;;;;;;4.47;3.85;;;;;;;;;;5056635;28;20120;-59
2023/06/12 07:43:52;;;;;;;4.03;3.63;;;;;;;;;;5056647;28;20473;-59
2023/06/12 07:46:18;;;;;;;4.68;3.50;;;;;;;;;;5056877;28;20036;-59
2023/06/12 07:48:44;;;;;;;5.45;4.88;;;;;;;;;;5056319;28;20029;-59
2023/06/12 07:51:10;;;;;;;4.50;4.05;;;;;;;;;;5057153;28;20439;-59
2023/06/12 07:53:36;;;;;;;4.53;3.67;;;;;;;;;;5056336;28;20425;-59
2023/06/12 07:56:02;;;;;;;3.88;3.50;;;;;;;;;;5056557;28;20055;-59
2023/06/12 07:58:28;;;;;;;5.38;4.88;;;;;;;;;;5055064;28;20022;-59
2023/06/12 08:00:55;;;;;;;4.07;3.47;;;;;;;;;;5056076;28;20029;-59
2023/06/12 08:03:24;;;;;;;7.50;3.55;;;;;;;;;;5056929;28;20036;-59
2023/06/12 08:05:51;;;;;;;5.07;4.15;;;;;;;;;;5056175;28;20380;-59
2023/06/12 08:08:17;;;;;;;5.63;4.35;;;;;;;;;;5055751;28;20033;-59
2023/06/12 08:10:43;;;;;;;7.72;3.63;;;;;;;;;;5056332;28;20031;-59
2023/06/12 08:13:09;;;;;;;3.88;3.42;;;;;;;;;;5055704;28;20549;-59
2023/06/12 08:15:36;;;;;;;4.82;4.20;;;;;;;;;;5055824;28;20032;-59
2023/06/12 08:18:02;;;;;;;13.77;3.97;;;;;;;;;;5056983;28;20111;-59
2023/06/12 08:20:28;;;;;;;4.15;3.33;;;;;;;;;;5056408;28;20052;-59
2023/06/12 08:22:57;;;;;;;5.43;3.97;;;;;;;;;;5056621;28;20052;-59
2023/06/12 08:25:23;;;;;;;4.93;3.83;;;;;;;;;;5055797;28;20033;-59
2023/06/12 08:27:49;;;;;;;7.40;4.63;;;;;;;;;;5056560;28;20111;-59
2023/06/12 08:30:15;;;;;;;4.75;3.90;;;;;;;;;;5055913;28;20021;-59
2023/06/12 08:32:42;;;;;;;4.68;3.42;;;;;;;;;;5055391;28;20017;-59
2023/06/12 08:35:08;;;;;;;3.75;3.17;;;;;;;;;;5055509;28;20064;-59
2023/06/12 08:37:35;;;;;;;4.18;3.13;;;;;;;;;;5055599;28;20197;-59
2023/06/12 08:40:01;;;;;;;6.18;3.90;;;;;;;;;;5055466;28;20454;-59
2023/06/12 08:42:27;;;;;;;5.15;3.97;;;;;;;;;;5055973;28;20407;-59
2023/06/12 08:44:57;;;;;;;4.25;3.72;;;;;;;;;;5055486;28;20029;-59
2023/06/12 08:47:23;;;;;;;;;;;;;;;;;;5056180;28;20029;-59
2023/06/12 08:49:50;;;;;;;4.80;3.33;;;;;;;;;;5055285;28;20344;-59
2023/06/12 08:52:17;;;;;;;4.22;3.80;;;;;;;;;;5055244;28;20021;-59
2023/06/12 08:54:43;;;;;;;4.78;4.35;;;;;;;;;;5055124;28;20471;-60
2023/06/12 08:57:10;;;;;;;5.15;3.97;;;;;;;;;;5055840;28;20402;-60
2023/06/12 08:59:36;;;;;;;6.65;3.45;;;;;;;;;;5055108;28;20433;-60
2023/06/12 09:02:03;;;;;;;4.22;3.83;;;;;;;;;;5055623;28;20061;-59
2023/06/12 09:04:41;;;;;;;4.63;3.88;;;;;;;;;;5055286;28;20112;-59
2023/06/12 09:07:07;;;;;;;3.97;3.58;;;;;;;;;;5055520;28;20352;-59
2023/06/12 09:09:40;;;;;;;3.90;3.42;;;;;;;;;;5054655;28;20384;-59
2023/06/12 09:12:08;;;;;;;5.32;4.05;;;;;;;;;;5055106;28;20021;-59
2023/06/12 09:14:35;;;;;;;4.55;4.15;;;;;;;;;;5054902;28;20044;-59
2023/06/12 09:17:01;;;;;;;3.97;3.58;;;;;;;;;;5055596;28;20028;-59
2023/06/12 09:19:35;;;;;;;5.03;3.75;;;;;;;;;;5055292;28;20399;-59
2023/06/12 09:22:02;;;;;;;5.57;3.22;;;;;;;;;;5055163;28;20032;-59
2023/06/12 09:24:28;;;;;;;4.93;3.70;;;;;;;;;;5054329;28;20031;-59
2023/06/12 09:26:55;;;;;;;4.82;3.38;;;;;;;;;;5054922;28;20037;-60
2023/06/12 09:29:28;;;;;;;4.78;3.85;;;;;;;;;;5054837;28;20035;-59
2023/06/12 09:31:54;;;;;;;3.92;3.25;;;;;;;;;;5054740;28;20075;-60
2023/06/12 09:34:20;;;;;;;5.32;4.32;;;;;;;;;;5054271;28;20375;-59
2023/06/12 09:36:47;;;;;;;4.13;3.10;;;;;;;;;;5055247;28;20094;-59
2023/06/12 09:39:17;;;;;;;4.80;4.15;;;;;;;;;;5054194;28;20677;-59
2023/06/12 09:41:49;;;;;;;5.07;3.90;;;;;;;;;;5054397;28;20108;-60
2023/06/12 09:44:20;;;;;;;4.82;4.00;;;;;;;;;;5054243;28;20024;-60
2023/06/12 09:46:46;;;;;;;5.32;4.03;;;;;;;;;;5053954;28;20021;-59
2023/06/12 09:49:13;;;;;;;3.83;3.40;;;;;;;;;;5054213;28;20108;-59
2023/06/12 09:51:41;;;;;;;4.18;3.40;;;;;;;;;;5054426;28;20440;-60
2023/06/12 09:54:08;;;;;;;4.05;3.65;;;;;;;;;;5054553;28;20025;-59
2023/06/12 09:56:34;;;;;;;5.03;3.65;;;;;;;;;;5054709;28;20055;-59
2023/06/12 09:59:02;;;;;;;4.60;3.97;;;;;;;;;;5053739;28;20032;-59
2023/06/12 10:01:28;;;;;;;4.35;3.88;;;;;;;;;;5054305;28;20066;-60
2023/06/12 10:03:59;;;;;;;4.47;3.67;;;;;;;;;;5053898;28;20032;-59
2023/06/12 10:06:26;;;;;;;4.90;3.58;;;;;;;;;;5054445;28;20044;-59
2023/06/12 10:08:54;;;;;;;4.80;3.75;;;;;;;;;;5054048;28;20127;-59
2023/06/12 10:11:21;;;;;;;4.72;4.22;;;;;;;;;;5053745;28;20170;-59
2023/06/12 10:13:47;;;;;;;4.38;3.95;;;;;;;;;;5053814;28;20053;-59
2023/06/12 10:16:13;;;;;;;4.05;3.65;;;;;;;;;;5053715;28;20061;-59
2023/06/12 10:18:40;;;;;;;4.35;3.75;;;;;;;;;;5053531;28;20029;-59
2023/06/12 10:21:06;;;;;;;5.93;3.80;;;;;;;;;;5053299;28;20479;-59
2023/06/12 10:23:33;;;;;;;4.47;3.50;;;;;;;;;;5053553;28;20367;-60
2023/06/12 10:25:59;;;;;;;4.55;3.85;;;;;;;;;;5054292;28;20021;-60
2023/06/12 10:28:25;;;;;;;3.42;3.13;;;;;;;;;;5053688;28;20021;-59
2023/06/12 10:31:13;;;;;;;5.55;3.60;;;;;;;;;;5053617;28;20021;-60
2023/06/12 10:33:56;;;;;;;6.00;4.40;;;;;;;;;;5053651;28;20032;-59
2023/06/12 10:36:22;;;;;;;4.30;3.80;;;;;;;;;;5053568;28;20470;-59
2023/06/12 10:38:49;;;;;;;5.20;3.50;;;;;;;;;;5053524;28;20029;-60
2023/06/12 10:41:33;;;;;;;4.13;3.30;;;;;;;;;;5053542;28;20053;-59
2023/06/12 10:44:00;;;;;;;7.35;3.75;;;;;;;;;;5053871;28;20021;-59
2023/06/12 10:46:43;;;;;;;4.90;3.65;;;;;;;;;;5054311;28;20359;-59
2023/06/12 10:49:11;;;;;;;4.85;3.78;;;;;;;;;;5053944;28;20021;-59
2023/06/12 10:51:42;;;;;;;4.60;3.33;;;;;;;;;;5053413;28;20111;-60
2023/06/12 10:54:15;;;;;;;3.72;3.30;;;;;;;;;;5053416;28;20021;-59
2023/06/12 10:57:00;;;;;;;5.00;3.67;;;;;;;;;;5053967;28;20406;-59
2023/06/12 10:59:30;;;;;;;4.68;3.80;;;;;;;;;;5053464;28;20029;-59
2023/06/12 11:01:56;;;;;;;4.95;3.33;;;;;;;;;;5054161;28;20029;-60
2023/06/12 11:04:22;;;;;;;3.95;3.53;;;;;;;;;;5053302;28;20028;-60
2023/06/12 11:06:48;;;;;;;6.03;3.95;;;;;;;;;;5053599;28;20025;-60
2023/06/12 11:09:14;;;;;;;4.47;4.07;;;;;;;;;;5053318;28;20029;-60
2023/06/12 11:11:51;;;;;;;4.82;3.92;;;;;;;;;;5053268;28;20024;-60
2023/06/12 11:14:17;;;;;;;6.00;3.75;;;;;;;;;;5053171;28;20128;-60
2023/06/12 11:16:45;;;;;;;4.82;3.50;;;;;;;;;;5053860;28;20025;-60
2023/06/12 11:19:11;;;;;;;5.00;3.70;;;;;;;;;;5053980;28;20021;-60
2023/06/12 11:21:37;;;;;;;7.07;3.83;;;;;;;;;;5053414;28;20092;-60
2023/06/12 11:24:08;;;;;;;4.68;4.00;;;;;;;;;;5053328;28;20356;-60
2023/06/12 11:26:35;;;;;;;4.63;3.72;;;;;;;;;;5053380;28;20025;-60
2023/06/12 11:29:17;;;;;;;5.00;3.92;;;;;;;;;;5053103;28;20114;-60
2023/06/12 11:31:47;;;;;;;5.78;4.03;;;;;;;;;;5053343;28;20364;-60
2023/06/12 11:34:13;;;;;;;4.35;2.90;;;;;;;;;;5054626;28;20437;-59
2023/06/12 11:36:39;;;;;;;4.05;3.60;;;;;;;;;;5057119;28;20037;-59
2023/06/12 11:39:17;;;;;;;3.97;3.53;;;;;;;;;;5056906;28;20082;-59
2023/06/12 11:41:43;;;;;;;4.28;3.30;;;;;;;;;;5056641;28;20071;-60
2023/06/12 11:44:09;;;;;;;5.03;3.72;;;;;;;;;;5056802;28;20021;-59
2023/06/12 11:46:35;;;;;;;4.70;4.03;;;;;;;;;;5056874;28;20032;-59
2023/06/12 11:49:01;;;;;;;3.78;3.40;;;;;;;;;;5056503;28;20036;-60
2023/06/12 11:51:27;;;;;;;4.65;4.18;;;;;;;;;;5056919;28;20386;-59
2023/06/12 11:53:53;;;;;;;4.10;3.50;;;;;;;;;;5056300;28;20043;-59
2023/06/12 11:56:21;;;;;;;4.25;3.65;;;;;;;;;;5056277;28;20112;-59
2023/06/12 11:58:47;;;;;;;4.57;3.70;;;;;;;;;;5056545;28;20028;-59
2023/06/12 12:01:21;;;;;;;3.53;3.00;;;;;;;;;;5056331;28;20033;-60
2023/06/12 12:03:47;;;;;;;6.15;4.20;;;;;;;;;;5056465;28;20028;-59
2023/06/12 12:06:14;;;;;;;7.05;3.38;;;;;;;;;;5056064;28;20375;-59
2023/06/12 12:08:40;;;;;;;3.17;2.78;;;;;;;;;;5055782;28;20530;-60
2023/06/12 12:11:16;;;;;;;6.05;3.88;;;;;;;;;;5056832;28;20020;-60
2023/06/12 12:13:49;;;;;;;5.35;4.43;;;;;;;;;;5055635;28;20053;-59
2023/06/12 12:16:15;;;;;;;3.90;3.50;;;;;;;;;;5055853;28;20036;-60
2023/06/12 12:18:44;;;;;;;5.40;4.03;;;;;;;;;;5055879;28;20021;-59
2023/06/12 12:21:14;;;;;;;8.30;3.72;;;;;;;;;;5056373;28;20100;-60
2023/06/12 12:23:41;;;;;;;4.68;3.67;;;;;;;;;;5056420;28;20390;-60
2023/06/12 12:26:09;;;;;;;5.80;3.88;;;;;;;;;;5056134;28;20036;-60
2023/06/12 12:28:35;;;;;;;4.25;3.15;;;;;;;;;;5055399;28;20086;-60
2023/06/12 12:31:02;;;;;;;4.63;3.70;;;;;;;;;;5056005;28;20022;-59
2023/06/12 12:33:28;;;;;;;5.68;4.10;;;;;;;;;;5055534;28;20047;-59
2023/06/12 12:35:54;;;;;;;3.70;2.95;;;;;;;;;;5055725;28;20063;-60
2023/06/12 12:38:20;;;;;;;4.32;3.63;;;;;;;;;;5055509;28;20033;-60
2023/06/12 12:40:46;;;;;;;5.60;3.97;;;;;;;;;;5056025;28;20401;-60
2023/06/12 12:43:12;;;;;;;6.55;3.13;;;;;;;;;;5055466;28;20021;-60
2023/06/12 12:45:38;;;;;;;4.40;4.00;;;;;;;;;;5055542;28;20033;-60
2023/06/12 12:48:05;;;;;;;4.15;3.65;;;;;;;;;;5056028;28;20025;-60
2023/06/12 12:50:31;;;;;;;4.13;3.72;;;;;;;;;;5055236;28;20596;-59
2023/06/12 12:52:57;;;;;;;4.45;3.58;;;;;;;;;;5055375;28;20048;-60
2023/06/12 12:55:23;;;;;;;3.85;3.35;;;;;;;;;;5055155;28;20100;-60
2023/06/12 12:57:50;;;;;;;5.30;3.40;;;;;;;;;;5055727;28;20108;-60
2023/06/12 13:00:20;;;;;;;5.78;3.72;;;;;;;;;;5055895;28;20017;-60
2023/06/12 13:02:46;;;;;;;3.43;2.80;;;;;;;;;;5055600;28;20032;-59
2023/06/12 13:05:13;;;;;;;5.05;3.80;;;;;;;;;;5054933;28;20033;-59
2023/06/12 13:07:39;;;;;;;5.88;3.67;;;;;;;;;;5055745;28;20025;-60
2023/06/12 13:10:10;;;;;;;4.85;3.80;;;;;;;;;;5055451;28;20104;-60
2023/06/12 13:12:36;;;;;;;6.07;3.67;;;;;;;;;;5054757;28;20525;-60
2023/06/12 13:15:03;;;;;;;5.20;3.80;;;;;;;;;;5054704;28;20510;-60
2023/06/12 13:17:29;;;;;;;5.00;3.85;;;;;;;;;;5055032;28;20108;-59
2023/06/12 13:19:55;;;;;;;4.35;3.38;;;;;;;;;;5054404;28;20049;-59
2023/06/12 13:22:21;;;;;;;5.15;3.78;;;;;;;;;;5054368;28;20100;-60
2023/06/12 13:24:47;;;;;;;5.55;3.67;;;;;;;;;;5054185;28;20086;-60
2023/06/12 13:27:13;;;;;;;6.15;3.72;;;;;;;;;;5054978;28;20025;-60
2023/06/12 13:29:39;;;;;;;4.53;3.63;;;;;;;;;;5054492;28;20052;-60
2023/06/12 13:32:06;;;;;;;5.55;3.00;;;;;;;;;;5054317;28;20067;-59
2023/06/12 13:34:32;;;;;;;4.85;3.97;;;;;;;;;;5054350;28;20104;-60
2023/06/12 13:36:58;;;;;;;4.20;3.63;;;;;;;;;;5054861;28;20111;-60
2023/06/12 13:39:24;;;;;;;6.38;3.50;;;;;;;;;;5054016;28;20057;-60
2023/06/12 13:41:52;;;;;;;4.35;3.92;;;;;;;;;;5054220;28;20031;-60
2023/06/12 13:44:18;;;;;;;5.18;4.00;;;;;;;;;;5054265;28;20029;-60
2023/06/12 13:46:44;;;;;;;4.18;3.30;;;;;;;;;;5053903;28;20032;-60
2023/06/12 13:49:10;;;;;;;6.38;4.38;;;;;;;;;;5054117;28;20060;-60
2023/06/12 13:51:37;;;;;;;7.07;3.78;;;;;;;;;;5054403;28;20360;-60
2023/06/12 13:54:03;;;;;;;4.68;3.47;;;;;;;;;;5054109;28;20029;-60
2023/06/12 13:56:30;;;;;;;4.53;3.88;;;;;;;;;;5053712;28;20025;-60
2023/06/12 13:58:56;;;;;;;6.55;3.92;;;;;;;;;;5053892;28;20028;-60
2023/06/12 14:01:21;;;;;;;4.18;3.78;;;;;;;;;;5053997;28;20035;-60
2023/06/12 14:03:47;;;;;;;4.63;4.10;;;;;;;;;;5053945;28;20367;-60
2023/06/12 14:06:13;;;;;;;5.32;3.60;;;;;;;;;;5053939;28;20024;-60
2023/06/12 14:08:42;;;;;;;5.72;3.65;;;;;;;;;;5054346;28;20459;-60
2023/06/12 14:11:08;;;;;;;3.38;3.00;;;;;;;;;;5054130;28;20036;-60
2023/06/12 14:13:35;;;;;;;4.07;3.65;;;;;;;;;;5053765;28;20467;-61
2023/06/12 14:16:02;;;;;;;4.85;3.58;;;;;;;;;;5053689;28;20132;-60
2023/06/12 14:18:29;;;;;;;5.28;3.70;;;;;;;;;;5053733;28;20037;-60
2023/06/12 14:20:55;;;;;;;5.47;4.38;;;;;;;;;;5053756;28;20112;-61
2023/06/12 14:23:21;;;;;;;4.30;3.90;;;;;;;;;;5053783;28;20469;-61
2023/06/12 14:25:47;;;;;;;4.90;3.58;;;;;;;;;;5053739;28;20033;-61
2023/06/12 14:28:13;;;;;;;4.57;3.60;;;;;;;;;;5053973;28;20040;-61
2023/06/12 14:30:39;;;;;;;4.43;3.70;;;;;;;;;;5053396;28;20071;-60
2023/06/12 14:33:05;;;;;;;4.30;3.42;;;;;;;;;;5053545;28;20021;-61
2023/06/12 14:35:32;;;;;;;4.47;3.35;;;;;;;;;;5053176;28;20041;-60
2023/06/12 14:37:58;;;;;;;6.63;4.43;;;;;;;;;;5054194;28;20032;-60
2023/06/12 14:40:24;;;;;;;7.63;3.67;;;;;;;;;;5053516;28;20032;-60
2023/06/12 14:42:50;;;;;;;4.80;4.07;;;;;;;;;;5053314;28;20029;-60